createdAt,value
2023-02-20T00:02:15.562Z,7.80
2023-02-20T00:04:43.463Z,8.00
2023-02-20T00:07:10.779Z,8.00
2023-02-20T00:09:38.930Z,7.60
2023-02-20T00:12:06.442Z,7.40
2023-02-20T00:14:33.692Z,7.50
2023-02-20T00:17:01.502Z,7.60
2023-02-20T00:19:29.288Z,7.50
2023-02-20T00:21:57.056Z,7.50
2023-02-20T00:24:24.469Z,7.50
2023-02-20T00:26:53.611Z,7.10
2023-02-20T00:29:23.934Z,7.10
2023-02-20T00:31:59.299Z,7.40
2023-02-20T00:34:31.298Z,7.40
2023-02-20T00:36:58.683Z,7.50
2023-02-20T00:39:26.953Z,7.60
2023-02-20T00:41:56.054Z,7.80
2023-02-20T00:44:23.419Z,7.90
2023-02-20T00:46:51.310Z,8.00
2023-02-20T00:49:19.201Z,7.60
2023-02-20T00:51:47.112Z,7.60
2023-02-20T00:54:15.666Z,7.80
2023-02-20T00:56:43.041Z,7.90
2023-02-20T00:59:11.504Z,8.00
2023-02-20T01:01:39.064Z,8.10
2023-02-20T01:04:07.330Z,8.10
2023-02-20T01:06:35.152Z,8.00
2023-02-20T01:09:03.613Z,7.60
2023-02-20T01:11:31.501Z,7.40
2023-02-20T01:13:59.973Z,7.30
2023-02-20T01:16:27.413Z,7.50
2023-02-20T01:18:57.522Z,7.60
2023-02-20T01:21:26.238Z,7.60
2023-02-20T01:23:53.663Z,7.80
2023-02-20T01:26:21.920Z,7.60
2023-02-20T01:28:52.799Z,7.40
2023-02-20T01:31:20.299Z,7.40
2023-02-20T01:33:48.181Z,7.20
2023-02-20T01:36:15.635Z,7.40
2023-02-20T01:38:43.115Z,6.90
2023-02-20T01:41:12.333Z,6.80
2023-02-20T01:43:39.617Z,6.70
2023-02-20T01:46:28.988Z,6.60
2023-02-20T01:49:07.374Z,6.40
2023-02-20T01:51:46.203Z,6.50
2023-02-20T01:54:17.361Z,5.70
2023-02-20T01:56:47.413Z,5.70
2023-02-20T01:59:16.092Z,5.90
2023-02-20T02:01:44.259Z,6.20
2023-02-20T02:04:14.875Z,6.40
2023-02-20T02:06:47.487Z,6.10
2023-02-20T02:09:23.741Z,5.60
2023-02-20T02:11:53.231Z,6.00
2023-02-20T02:14:20.780Z,6.30
2023-02-20T02:17:19.061Z,6.30
2023-02-20T02:20:20.144Z,6.30
2023-02-20T02:22:47.518Z,6.10
2023-02-20T02:25:25.744Z,6.20
2023-02-20T02:28:12.478Z,6.50
2023-02-20T02:31:20.641Z,6.60
2023-02-20T02:34:15.144Z,6.80
2023-02-20T02:36:51.958Z,6.70
2023-02-20T02:40:03.611Z,6.90
2023-02-20T02:42:52.017Z,7.00
2023-02-20T02:45:47.692Z,7.10
2023-02-20T02:48:28.719Z,7.20
2023-02-20T02:51:05.044Z,7.20
2023-02-20T02:53:32.637Z,7.20
2023-02-20T02:56:19.796Z,7.10
2023-02-20T02:58:49.490Z,7.00
2023-02-20T03:01:20.650Z,7.00
2023-02-20T03:03:53.043Z,7.00
2023-02-20T03:06:34.576Z,7.00
2023-02-20T03:09:21.009Z,7.00
2023-02-20T03:11:51.939Z,6.70
2023-02-20T03:14:47.486Z,6.50
2023-02-20T03:17:14.668Z,6.50
2023-02-20T03:19:46.096Z,6.50
2023-02-20T03:22:26.704Z,6.40
2023-02-20T03:24:58.639Z,5.70
2023-02-20T03:27:49.742Z,5.70
2023-02-20T03:30:32.357Z,6.00
2023-02-20T03:34:03.429Z,6.30
2023-02-20T03:37:08.950Z,6.30
2023-02-20T03:40:03.423Z,6.00
2023-02-20T03:42:57.165Z,5.60
2023-02-20T03:45:36.043Z,5.60
2023-02-20T03:48:12.770Z,5.50
2023-02-20T03:50:40.417Z,5.60
2023-02-20T03:53:07.821Z,5.90
2023-02-20T03:55:35.703Z,6.10
2023-02-20T03:58:11.530Z,6.20
2023-02-20T04:00:46.384Z,6.30
2023-02-20T04:03:22.659Z,6.30
2023-02-20T04:05:57.321Z,6.20
2023-02-20T04:09:01.071Z,6.20
2023-02-20T04:11:39.418Z,6.40
2023-02-20T04:14:08.750Z,6.60
2023-02-20T04:16:45.064Z,6.10
2023-02-20T04:19:13.101Z,5.80
2023-02-20T04:21:46.914Z,5.50
2023-02-20T04:24:36.570Z,5.80
2023-02-20T04:27:04.864Z,6.10
2023-02-20T04:29:35.448Z,6.20
2023-02-20T04:32:03.268Z,6.20
2023-02-20T04:34:36.222Z,6.40
2023-02-20T04:37:15.341Z,6.50
2023-02-20T04:39:44.907Z,6.60
2023-02-20T04:42:12.811Z,6.70
2023-02-20T04:44:42.535Z,6.70
2023-02-20T04:47:17.227Z,6.70
2023-02-20T04:49:45.894Z,6.70
2023-02-20T04:52:17.832Z,6.70
2023-02-20T04:54:45.125Z,6.80
2023-02-20T04:57:14.593Z,6.90
2023-02-20T04:59:42.239Z,7.00
2023-02-20T05:02:11.690Z,7.00
2023-02-20T05:04:39.089Z,7.00
2023-02-20T05:07:07.776Z,7.00
2023-02-20T05:09:35.070Z,7.00
2023-02-20T05:12:02.962Z,6.90
2023-02-20T05:14:31.447Z,6.70
2023-02-20T05:16:58.713Z,6.50
2023-02-20T05:19:26.731Z,6.40
2023-02-20T05:22:12.670Z,6.50
2023-02-20T05:24:44.528Z,6.70
2023-02-20T05:27:17.219Z,6.70
2023-02-20T05:29:56.647Z,6.80
2023-02-20T05:32:27.456Z,6.90
2023-02-20T05:34:55.969Z,6.80
2023-02-20T05:37:26.393Z,6.70
2023-02-20T05:39:53.949Z,6.80
2023-02-20T05:42:23.261Z,6.60
2023-02-20T05:44:50.665Z,6.50
2023-02-20T05:47:18.061Z,6.40
2023-02-20T05:49:47.457Z,6.00
2023-02-20T05:52:14.848Z,5.90
2023-02-20T05:54:42.627Z,5.90
2023-02-20T05:57:13.159Z,6.10
2023-02-20T05:59:40.690Z,6.40
2023-02-20T06:02:08.323Z,6.60
2023-02-20T06:04:35.798Z,6.80
2023-02-20T06:07:03.587Z,6.80
2023-02-20T06:09:30.822Z,6.80
2023-02-20T06:11:58.575Z,7.00
2023-02-20T06:14:27.408Z,7.00
2023-02-20T06:16:57.840Z,7.10
2023-02-20T06:19:26.779Z,7.00
2023-02-20T06:21:54.595Z,7.00
2023-02-20T06:24:23.532Z,7.00
2023-02-20T06:26:51.002Z,7.00
2023-02-20T06:29:19.930Z,6.90
2023-02-20T06:31:48.143Z,6.80
2023-02-20T06:34:17.091Z,6.80
2023-02-20T06:36:45.372Z,7.00
2023-02-20T06:39:15.350Z,7.10
2023-02-20T06:41:45.532Z,7.20
2023-02-20T06:44:12.904Z,7.20
2023-02-20T06:46:40.927Z,7.30
2023-02-20T06:49:08.444Z,7.40
2023-02-20T06:51:37.397Z,7.40
2023-02-20T06:54:05.477Z,7.50
2023-02-20T06:56:35.095Z,7.40
2023-02-20T06:59:05.560Z,7.10
2023-02-20T07:01:41.852Z,7.00
2023-02-20T07:04:26.661Z,7.00
2023-02-20T07:06:56.504Z,7.00
2023-02-20T07:09:26.456Z,7.00
2023-02-20T07:11:54.731Z,7.00
2023-02-20T07:14:24.532Z,6.90
2023-02-20T07:16:53.208Z,7.00
2023-02-20T07:19:20.439Z,7.00
2023-02-20T07:21:47.999Z,7.20
2023-02-20T07:24:16.622Z,7.10
2023-02-20T07:26:45.008Z,6.90
2023-02-20T07:29:14.226Z,6.70
2023-02-20T07:31:41.737Z,6.90
2023-02-20T07:34:09.659Z,7.20
2023-02-20T07:36:38.961Z,7.50
2023-02-20T07:39:09.151Z,7.60
2023-02-20T07:41:37.067Z,7.60
2023-02-20T07:44:07.215Z,7.90
2023-02-20T07:46:34.638Z,8.20
2023-02-20T07:49:05.544Z,8.50
2023-02-20T07:51:34.087Z,8.60
2023-02-20T07:54:01.828Z,8.80
2023-02-20T07:56:30.907Z,9.00
2023-02-20T07:59:00.644Z,9.20
2023-02-20T08:01:28.429Z,9.20
2023-02-20T08:03:56.597Z,9.20
2023-02-20T08:06:24.211Z,9.10
2023-02-20T08:08:52.671Z,9.10
2023-02-20T08:11:21.416Z,9.20
2023-02-20T08:13:49.848Z,9.20
2023-02-20T08:16:18.509Z,9.30
2023-02-20T08:18:46.560Z,9.40
2023-02-20T08:21:14.048Z,9.50
2023-02-20T08:23:42.749Z,9.60
2023-02-20T08:26:10.478Z,9.70
2023-02-20T08:28:39.209Z,9.70
2023-02-20T08:31:07.288Z,9.90
2023-02-20T08:33:35.017Z,10.10
2023-02-20T08:36:03.165Z,10.20
2023-02-20T08:38:34.693Z,10.30
2023-02-20T08:41:07.938Z,10.50
2023-02-20T08:43:36.114Z,10.70
2023-02-20T08:46:05.192Z,10.60
2023-02-20T08:48:34.150Z,10.60
2023-02-20T08:51:01.486Z,10.70
2023-02-20T08:53:29.850Z,10.60
2023-02-20T08:55:57.215Z,10.60
2023-02-20T08:58:26.834Z,10.60
2023-02-20T09:00:58.379Z,10.90
2023-02-20T09:03:28.057Z,11.10
2023-02-20T09:05:56.203Z,11.30
2023-02-20T09:08:23.893Z,11.40
2023-02-20T09:10:52.669Z,11.30
2023-02-20T09:13:20.042Z,11.40
2023-02-20T09:15:57.887Z,11.50
2023-02-20T09:18:29.219Z,11.70
2023-02-20T09:20:56.564Z,11.90
2023-02-20T09:23:26.893Z,12.00
2023-02-20T09:25:54.269Z,12.00
2023-02-20T09:28:25.146Z,12.30
2023-02-20T09:30:55.091Z,12.50
2023-02-20T09:33:22.769Z,12.60
2023-02-20T09:35:52.144Z,12.80
2023-02-20T09:38:19.480Z,12.80
2023-02-20T09:40:50.288Z,12.80
2023-02-20T09:43:26.653Z,13.00
2023-02-20T09:46:15.663Z,13.10
2023-02-20T09:49:19.523Z,13.20
2023-02-20T09:51:54.026Z,13.30
2023-02-20T09:54:36.304Z,13.50
2023-02-20T09:57:10.692Z,13.60
2023-02-20T09:59:51.988Z,13.80
2023-02-20T10:02:40.486Z,13.80
2023-02-20T10:05:21.390Z,14.00
2023-02-20T10:07:50.359Z,13.90
2023-02-20T10:10:24.116Z,13.80
2023-02-20T10:13:08.666Z,14.00
2023-02-20T10:16:15.046Z,14.40
2023-02-20T10:19:08.558Z,14.70
2023-02-20T10:21:58.911Z,14.60
2023-02-20T10:24:28.975Z,14.60
2023-02-20T10:27:05.703Z,14.20
2023-02-20T10:29:37.447Z,14.10
2023-02-20T10:32:21.266Z,14.50
2023-02-20T10:35:08.949Z,14.90
2023-02-20T10:37:47.825Z,15.30
2023-02-20T10:40:45.841Z,15.40
2023-02-20T10:43:28.544Z,15.80
2023-02-20T10:46:07.536Z,16.00
2023-02-20T10:48:35.762Z,16.10
2023-02-20T10:51:17.960Z,16.20
2023-02-20T10:54:11.150Z,16.20
2023-02-20T10:56:44.300Z,16.50
2023-02-20T10:59:21.540Z,16.70
2023-02-20T11:01:55.012Z,17.00
2023-02-20T11:04:27.307Z,17.40
2023-02-20T11:07:03.378Z,17.50
2023-02-20T11:09:31.859Z,17.50
2023-02-20T11:12:00.086Z,17.80
2023-02-20T11:14:39.878Z,18.20
2023-02-20T11:17:23.121Z,17.50
2023-02-20T11:19:56.300Z,17.30
2023-02-20T11:22:46.131Z,17.60
2023-02-20T11:25:20.823Z,17.70
2023-02-20T11:27:53.009Z,17.60
2023-02-20T11:30:40.666Z,17.60
2023-02-20T11:33:18.630Z,17.40
2023-02-20T11:35:57.528Z,17.70
2023-02-20T11:38:25.981Z,17.80
2023-02-20T11:41:00.917Z,17.90
2023-02-20T11:43:38.750Z,17.80
2023-02-20T11:46:16.042Z,18.00
2023-02-20T11:49:06.166Z,18.00
2023-02-20T11:51:50.289Z,17.60
2023-02-20T11:54:28.361Z,18.20
2023-02-20T11:57:22.594Z,18.70
2023-02-20T11:59:52.599Z,19.00
2023-02-20T12:02:27.410Z,19.20
2023-02-20T12:05:12.834Z,19.50
2023-02-20T12:07:44.526Z,19.40
2023-02-20T12:10:39.439Z,19.50
2023-02-20T12:13:15.463Z,19.30
2023-02-20T12:15:49.626Z,19.40
2023-02-20T12:18:32.247Z,19.10
2023-02-20T12:21:17.856Z,19.10
2023-02-20T12:24:14.822Z,19.20
2023-02-20T12:27:00.598Z,18.80
2023-02-20T12:29:55.295Z,18.80
2023-02-20T12:32:29.891Z,18.00
2023-02-20T12:35:34.785Z,17.40
2023-02-20T12:38:27.449Z,17.50
2023-02-20T12:41:23.716Z,18.10
2023-02-20T12:44:12.511Z,18.40
2023-02-20T12:47:05.542Z,18.40
2023-02-20T12:49:55.550Z,18.30
2023-02-20T12:52:36.790Z,18.50
2023-02-20T12:55:22.037Z,18.90
2023-02-20T12:58:19.012Z,18.40
2023-02-20T13:01:01.476Z,18.50
2023-02-20T13:03:50.891Z,18.70
2023-02-20T13:06:40.142Z,18.80
2023-02-20T13:09:23.743Z,19.30
2023-02-20T13:12:01.797Z,19.60
2023-02-20T13:14:51.190Z,19.80
2023-02-20T13:17:57.428Z,20.00
2023-02-20T13:20:29.314Z,20.30
2023-02-20T13:23:01.009Z,20.40
2023-02-20T13:25:31.815Z,20.50
2023-02-20T13:28:09.642Z,20.10
2023-02-20T13:30:41.790Z,19.70
2023-02-20T13:33:30.017Z,19.90
2023-02-20T13:35:58.482Z,19.90
2023-02-20T13:38:28.306Z,20.00
2023-02-20T13:41:03.050Z,20.30
2023-02-20T13:43:37.337Z,20.40
2023-02-20T13:46:15.686Z,20.10
2023-02-20T13:48:51.282Z,20.10
2023-02-20T13:51:22.491Z,20.10
2023-02-20T13:53:54.162Z,20.00
2023-02-20T13:56:28.224Z,19.70
2023-02-20T13:58:59.633Z,19.90
2023-02-20T14:01:27.249Z,20.30
2023-02-20T14:04:04.593Z,20.00
2023-02-20T14:06:32.681Z,19.70
2023-02-20T14:09:21.776Z,19.40
2023-02-20T14:11:52.485Z,19.80
2023-02-20T14:14:31.300Z,19.80
2023-02-20T14:17:14.445Z,20.00
2023-02-20T14:19:48.200Z,20.50
2023-02-20T14:22:21.665Z,20.70
2023-02-20T14:25:27.752Z,20.30
2023-02-20T14:28:07.098Z,20.10
2023-02-20T14:30:38.591Z,20.10
2023-02-20T14:33:21.892Z,20.00
2023-02-20T14:36:18.775Z,20.20
2023-02-20T14:39:13.962Z,20.20
2023-02-20T14:41:55.722Z,20.10
2023-02-20T14:44:24.463Z,19.30
2023-02-20T14:47:00.440Z,19.10
2023-02-20T14:49:31.711Z,18.90
2023-02-20T14:52:12.526Z,18.60
2023-02-20T14:54:41.741Z,18.20
2023-02-20T14:57:14.273Z,18.00
2023-02-20T14:59:42.529Z,18.20
2023-02-20T15:02:34.239Z,18.10
2023-02-20T15:05:12.816Z,17.70
2023-02-20T15:07:40.858Z,17.20
2023-02-20T15:10:37.719Z,16.90
2023-02-20T15:13:15.492Z,17.20
2023-02-20T15:16:05.835Z,17.00
2023-02-20T15:18:44.759Z,17.30
2023-02-20T15:21:16.351Z,17.50
2023-02-20T15:23:47.059Z,17.80
2023-02-20T15:26:33.979Z,18.10
2023-02-20T15:29:29.490Z,18.10
2023-02-20T15:32:06.183Z,18.40
2023-02-20T15:34:38.619Z,18.30
2023-02-20T15:37:19.016Z,18.20
2023-02-20T15:39:50.172Z,18.20
2023-02-20T15:42:19.227Z,17.40
2023-02-20T15:44:47.345Z,16.40
2023-02-20T15:47:15.519Z,15.90
2023-02-20T15:49:43.900Z,15.60
2023-02-20T15:52:18.653Z,15.40
2023-02-20T15:54:53.903Z,15.30
2023-02-20T15:57:22.093Z,15.10
2023-02-20T15:59:50.497Z,15.00
2023-02-20T16:02:21.593Z,15.00
2023-02-20T16:04:52.260Z,14.90
2023-02-20T16:07:21.286Z,14.80
2023-02-20T16:09:49.221Z,14.70
2023-02-20T16:12:24.372Z,14.70
2023-02-20T16:14:54.124Z,14.60
2023-02-20T16:17:25.829Z,14.50
2023-02-20T16:19:54.474Z,14.40
2023-02-20T16:22:22.268Z,14.40
2023-02-20T16:24:50.736Z,14.30
2023-02-20T16:27:30.765Z,14.20
2023-02-20T16:29:59.407Z,14.10
2023-02-20T16:32:28.763Z,14.00
2023-02-20T16:34:59.094Z,14.00
2023-02-20T16:37:27.461Z,13.90
2023-02-20T16:39:54.968Z,13.90
2023-02-20T16:42:30.453Z,13.80
2023-02-20T16:44:58.937Z,13.70
2023-02-20T16:47:31.594Z,13.60
2023-02-20T16:50:01.750Z,13.50
2023-02-20T16:52:36.824Z,13.50
2023-02-20T16:55:07.576Z,13.50
2023-02-20T16:57:35.238Z,13.50
2023-02-20T17:00:02.850Z,13.50
2023-02-20T17:02:32.436Z,13.50
2023-02-20T17:05:00.634Z,13.40
2023-02-20T17:07:31.473Z,13.50
2023-02-20T17:09:59.328Z,13.40
2023-02-20T17:12:27.555Z,13.30
2023-02-20T17:14:54.976Z,13.30
2023-02-20T17:17:25.885Z,13.50
2023-02-20T17:19:56.055Z,13.50
2023-02-20T17:22:26.327Z,13.50
2023-02-20T17:24:56.757Z,13.60
2023-02-20T17:27:25.315Z,13.60
2023-02-20T17:29:54.590Z,13.70
2023-02-20T17:32:23.534Z,13.70
2023-02-20T17:34:52.094Z,13.70
2023-02-20T17:37:19.719Z,13.60
2023-02-20T17:39:47.271Z,13.60
2023-02-20T17:42:15.590Z,13.50
2023-02-20T17:44:42.985Z,13.40
2023-02-20T17:47:11.087Z,13.30
2023-02-20T17:49:41.164Z,13.20
2023-02-20T17:52:11.067Z,13.00
2023-02-20T17:54:39.939Z,13.00
2023-02-20T17:57:07.298Z,12.90
2023-02-20T17:59:42.934Z,12.70
2023-02-20T18:02:12.168Z,12.70
2023-02-20T18:04:40.126Z,12.70
2023-02-20T18:07:09.761Z,12.60
2023-02-20T18:09:37.881Z,12.50
2023-02-20T18:12:06.385Z,12.50
2023-02-20T18:14:35.005Z,12.50
2023-02-20T18:17:05.508Z,12.40
2023-02-20T18:19:32.779Z,12.20
2023-02-20T18:22:00.119Z,11.80
2023-02-20T18:24:30.611Z,11.50
2023-02-20T18:26:58.962Z,11.30
2023-02-20T18:29:27.658Z,11.40
2023-02-20T18:31:57.917Z,11.30
2023-02-20T18:34:29.164Z,11.50
2023-02-20T18:36:57.241Z,11.50
2023-02-20T18:39:25.914Z,11.70
2023-02-20T18:41:56.003Z,11.70
2023-02-20T18:44:23.881Z,11.60
2023-02-20T18:46:51.746Z,11.50
2023-02-20T18:49:19.352Z,11.30
2023-02-20T18:51:47.450Z,11.30
2023-02-20T18:54:22.531Z,11.50
2023-02-20T18:56:54.021Z,11.40
2023-02-20T18:59:23.154Z,11.00
2023-02-20T19:01:51.606Z,10.90
2023-02-20T19:04:19.325Z,11.00
2023-02-20T19:06:49.561Z,11.10
2023-02-20T19:09:19.668Z,10.80
2023-02-20T19:11:55.905Z,10.90
2023-02-20T19:14:29.213Z,11.10
2023-02-20T19:16:59.274Z,11.20
2023-02-20T19:19:30.853Z,11.40
2023-02-20T19:21:58.760Z,10.90
2023-02-20T19:24:27.603Z,10.90
2023-02-20T19:26:56.887Z,10.90
2023-02-20T19:29:30.697Z,10.90
2023-02-20T19:32:01.679Z,10.90
2023-02-20T19:34:29.784Z,11.00
2023-02-20T19:36:58.244Z,11.00
2023-02-20T19:39:25.682Z,11.10
2023-02-20T19:41:53.882Z,11.20
2023-02-20T19:44:24.457Z,11.10
2023-02-20T19:46:53.315Z,10.90
2023-02-20T19:49:25.717Z,10.90
2023-02-20T19:51:55.492Z,11.00
2023-02-20T19:54:28.499Z,11.10
2023-02-20T19:57:02.834Z,11.10
2023-02-20T19:59:33.101Z,10.80
2023-02-20T20:02:01.922Z,10.50
2023-02-20T20:04:32.403Z,10.40
2023-02-20T20:07:01.246Z,10.20
2023-02-20T20:09:36.557Z,10.10
2023-02-20T20:12:29.011Z,9.90
2023-02-20T20:15:28.547Z,10.00
2023-02-20T20:18:00.837Z,10.00
2023-02-20T20:20:32.840Z,10.00
2023-02-20T20:23:02.978Z,10.00
2023-02-20T20:25:30.798Z,9.90
2023-02-20T20:28:02.972Z,9.90
2023-02-20T20:30:40.095Z,10.00
2023-02-20T20:33:10.434Z,10.10
2023-02-20T20:35:38.790Z,10.30
2023-02-20T20:38:06.199Z,10.40
2023-02-20T20:40:33.804Z,10.50
2023-02-20T20:43:02.360Z,10.10
2023-02-20T20:45:34.170Z,9.40
2023-02-20T20:48:06.326Z,9.20
2023-02-20T20:50:33.820Z,9.20
2023-02-20T20:53:01.664Z,9.40
2023-02-20T20:55:30.428Z,9.50
2023-02-20T20:57:58.520Z,9.80
2023-02-20T21:00:33.304Z,10.00
2023-02-20T21:03:03.334Z,10.10
2023-02-20T21:05:33.551Z,10.20
2023-02-20T21:08:03.298Z,10.20
2023-02-20T21:10:31.419Z,9.70
2023-02-20T21:12:59.664Z,9.50
2023-02-20T21:15:31.656Z,9.20
2023-02-20T21:18:00.118Z,9.10
2023-02-20T21:20:31.384Z,9.20
2023-02-20T21:23:01.155Z,9.00
2023-02-20T21:25:29.370Z,9.00
2023-02-20T21:27:58.921Z,9.20
2023-02-20T21:30:29.909Z,8.60
2023-02-20T21:32:57.352Z,8.10
2023-02-20T21:35:26.346Z,8.40
2023-02-20T21:37:54.218Z,8.60
2023-02-20T21:40:22.236Z,8.90
2023-02-20T21:43:10.421Z,9.20
2023-02-20T21:45:43.073Z,9.30
2023-02-20T21:48:13.084Z,9.40
2023-02-20T21:50:40.679Z,9.50
2023-02-20T21:53:08.277Z,9.50
2023-02-20T21:55:36.046Z,9.20
2023-02-20T21:58:03.369Z,9.20
2023-02-20T22:00:33.164Z,9.20
2023-02-20T22:03:00.799Z,9.30
2023-02-20T22:05:31.018Z,9.40
2023-02-20T22:08:17.456Z,9.20
2023-02-20T22:11:04.443Z,8.80
2023-02-20T22:13:50.883Z,8.90
2023-02-20T22:16:39.393Z,8.80
2023-02-20T22:19:25.147Z,8.60
2023-02-20T22:22:12.198Z,8.70
2023-02-20T22:24:58.018Z,8.70
2023-02-20T22:27:43.522Z,8.60
2023-02-20T22:30:35.313Z,8.40
2023-02-20T22:33:23.147Z,8.60
2023-02-20T22:36:09.728Z,8.80
2023-02-20T22:38:55.402Z,8.60
2023-02-20T22:41:42.489Z,8.80
2023-02-20T22:44:30.035Z,8.50
2023-02-20T22:47:17.950Z,8.60
2023-02-20T22:50:05.002Z,8.80
2023-02-20T22:52:51.938Z,8.70
2023-02-20T22:55:38.717Z,8.70
2023-02-20T22:58:24.524Z,8.60
2023-02-20T23:01:11.320Z,8.60
2023-02-20T23:03:58.618Z,8.60
2023-02-20T23:06:45.417Z,8.70
2023-02-20T23:09:32.937Z,8.80
2023-02-20T23:12:18.739Z,8.90
2023-02-20T23:15:05.145Z,8.80
2023-02-20T23:17:51.976Z,8.40
2023-02-20T23:20:41.953Z,8.50
2023-02-20T23:23:28.043Z,8.60
2023-02-20T23:26:14.321Z,8.80
2023-02-20T23:29:00.814Z,8.90
2023-02-20T23:31:53.488Z,8.80
2023-02-20T23:34:41.235Z,8.30
2023-02-20T23:37:28.168Z,7.80
2023-02-20T23:40:15.905Z,8.00
2023-02-20T23:43:04.553Z,8.10
2023-02-20T23:45:51.999Z,8.20
2023-02-20T23:48:37.837Z,8.20
2023-02-20T23:51:28.981Z,8.30
2023-02-20T23:54:14.842Z,8.40
2023-02-20T23:57:01.385Z,8.60
2023-02-20T23:59:48.050Z,8.60
